sensor_id;sensor_type;location;lat;lon;timestamp;P1;durP1;ratioP1;P2;durP2;ratioP2
22916;SDS011;11624;53.250;7.456;2022-09-24T00:01:24;50.80;;;28.98;;
22916;SDS011;11624;53.250;7.456;2022-09-24T00:03:53;45.13;;;28.05;;
22916;SDS011;11624;53.250;7.456;2022-09-24T00:06:23;47.25;;;27.83;;
22916;SDS011;11624;53.250;7.456;2022-09-24T00:08:52;46.70;;;28.17;;
22916;SDS011;11624;53.250;7.456;2022-09-24T00:11:22;46.90;;;27.90;;
22916;SDS011;11624;53.250;7.456;2022-09-24T00:13:52;54.22;;;29.27;;
22916;SDS011;11624;53.250;7.456;2022-09-24T00:16:21;46.00;;;28.38;;
22916;SDS011;11624;53.250;7.456;2022-09-24T00:18:52;51.10;;;29.17;;
22916;SDS011;11624;53.250;7.456;2022-09-24T00:21:22;46.08;;;28.40;;
22916;SDS011;11624;53.250;7.456;2022-09-24T00:23:51;44.03;;;29.08;;
22916;SDS011;11624;53.250;7.456;2022-09-24T00:26:21;50.50;;;29.35;;
22916;SDS011;11624;53.250;7.456;2022-09-24T00:29:07;52.65;;;30.23;;
22916;SDS011;11624;53.250;7.456;2022-09-24T00:31:35;51.58;;;29.17;;
22916;SDS011;11624;53.250;7.456;2022-09-24T00:34:05;53.85;;;30.05;;
22916;SDS011;11624;53.250;7.456;2022-09-24T00:36:34;53.45;;;29.60;;
22916;SDS011;11624;53.250;7.456;2022-09-24T00:39:03;46.47;;;29.10;;
22916;SDS011;11624;53.250;7.456;2022-09-24T00:41:32;51.22;;;31.15;;
22916;SDS011;11624;53.250;7.456;2022-09-24T00:44:33;52.13;;;31.70;;
22916;SDS011;11624;53.250;7.456;2022-09-24T00:47:14;50.78;;;30.52;;
22916;SDS011;11624;53.250;7.456;2022-09-24T00:49:57;54.63;;;31.10;;
22916;SDS011;11624;53.250;7.456;2022-09-24T00:52:34;55.85;;;32.33;;
22916;SDS011;11624;53.250;7.456;2022-09-24T00:55:07;53.17;;;31.38;;
22916;SDS011;11624;53.250;7.456;2022-09-24T00:57:36;53.38;;;31.35;;
22916;SDS011;11624;53.250;7.456;2022-09-24T01:00:06;54.20;;;32.28;;
22916;SDS011;11624;53.250;7.456;2022-09-24T01:02:36;52.60;;;31.40;;
22916;SDS011;11624;53.250;7.456;2022-09-24T01:05:09;58.85;;;32.20;;
22916;SDS011;11624;53.250;7.456;2022-09-24T01:07:37;55.70;;;31.90;;
22916;SDS011;11624;53.250;7.456;2022-09-24T01:10:05;57.22;;;32.20;;
22916;SDS011;11624;53.250;7.456;2022-09-24T01:12:35;56.75;;;32.42;;
22916;SDS011;11624;53.250;7.456;2022-09-24T01:15:10;60.40;;;33.72;;
22916;SDS011;11624;53.250;7.456;2022-09-24T01:17:48;56.95;;;32.13;;
22916;SDS011;11624;53.250;7.456;2022-09-24T01:20:34;55.42;;;32.58;;
22916;SDS011;11624;53.250;7.456;2022-09-24T01:23:29;60.78;;;33.58;;
22916;SDS011;11624;53.250;7.456;2022-09-24T01:26:28;54.78;;;32.83;;
22916;SDS011;11624;53.250;7.456;2022-09-24T01:29:17;57.63;;;34.17;;
22916;SDS011;11624;53.250;7.456;2022-09-24T01:32:03;59.75;;;33.45;;
22916;SDS011;11624;53.250;7.456;2022-09-24T01:34:36;61.85;;;34.88;;
22916;SDS011;11624;53.250;7.456;2022-09-24T01:37:07;55.40;;;34.00;;
22916;SDS011;11624;53.250;7.456;2022-09-24T01:39:36;65.25;;;36.03;;
22916;SDS011;11624;53.250;7.456;2022-09-24T01:42:05;62.63;;;34.00;;
22916;SDS011;11624;53.250;7.456;2022-09-24T01:44:38;63.00;;;35.40;;
22916;SDS011;11624;53.250;7.456;2022-09-24T01:47:11;58.95;;;34.53;;
22916;SDS011;11624;53.250;7.456;2022-09-24T01:49:46;58.60;;;34.15;;
22916;SDS011;11624;53.250;7.456;2022-09-24T01:52:20;62.08;;;35.92;;
22916;SDS011;11624;53.250;7.456;2022-09-24T01:55:52;62.58;;;34.85;;
22916;SDS011;11624;53.250;7.456;2022-09-24T01:59:51;63.33;;;34.85;;
22916;SDS011;11624;53.250;7.456;2022-09-24T02:02:38;68.63;;;38.08;;
22916;SDS011;11624;53.250;7.456;2022-09-24T02:06:13;58.97;;;34.30;;
22916;SDS011;11624;53.250;7.456;2022-09-24T02:09:04;63.10;;;37.20;;
22916;SDS011;11624;53.250;7.456;2022-09-24T02:29:08;74.03;;;38.78;;
22916;SDS011;11624;53.250;7.456;2022-09-24T02:31:45;74.25;;;39.00;;
22916;SDS011;11624;53.250;7.456;2022-09-24T02:34:20;85.18;;;41.53;;
22916;SDS011;11624;53.250;7.456;2022-09-24T02:36:56;85.32;;;42.63;;
22916;SDS011;11624;53.250;7.456;2022-09-24T02:39:29;72.45;;;41.63;;
22916;SDS011;11624;53.250;7.456;2022-09-24T02:41:57;79.50;;;42.28;;
22916;SDS011;11624;53.250;7.456;2022-09-24T02:44:28;83.88;;;43.42;;
22916;SDS011;11624;53.250;7.456;2022-09-24T02:46:57;81.35;;;41.72;;
22916;SDS011;11624;53.250;7.456;2022-09-24T02:49:26;81.05;;;42.78;;
22916;SDS011;11624;53.250;7.456;2022-09-24T02:51:54;87.55;;;42.45;;
22916;SDS011;11624;53.250;7.456;2022-09-24T02:54:22;85.47;;;43.28;;
22916;SDS011;11624;53.250;7.456;2022-09-24T02:56:51;85.05;;;44.08;;
22916;SDS011;11624;53.250;7.456;2022-09-24T02:59:19;85.75;;;43.83;;
22916;SDS011;11624;53.250;7.456;2022-09-24T03:01:49;81.43;;;42.97;;
22916;SDS011;11624;53.250;7.456;2022-09-24T03:04:17;88.93;;;44.42;;
22916;SDS011;11624;53.250;7.456;2022-09-24T03:06:46;91.10;;;44.58;;
22916;SDS011;11624;53.250;7.456;2022-09-24T03:09:14;91.47;;;44.45;;
22916;SDS011;11624;53.250;7.456;2022-09-24T03:11:42;88.07;;;43.28;;
22916;SDS011;11624;53.250;7.456;2022-09-24T03:14:10;90.88;;;45.25;;
22916;SDS011;11624;53.250;7.456;2022-09-24T03:16:38;88.28;;;43.90;;
22916;SDS011;11624;53.250;7.456;2022-09-24T03:19:08;96.68;;;45.05;;
22916;SDS011;11624;53.250;7.456;2022-09-24T03:21:36;93.57;;;45.28;;
22916;SDS011;11624;53.250;7.456;2022-09-24T03:24:04;112.00;;;46.80;;
22916;SDS011;11624;53.250;7.456;2022-09-24T03:26:32;97.38;;;46.08;;
22916;SDS011;11624;53.250;7.456;2022-09-24T03:29:00;90.45;;;45.10;;
22916;SDS011;11624;53.250;7.456;2022-09-24T03:31:28;105.13;;;47.00;;
22916;SDS011;11624;53.250;7.456;2022-09-24T03:33:55;99.45;;;46.83;;
22916;SDS011;11624;53.250;7.456;2022-09-24T03:36:26;103.90;;;46.67;;
22916;SDS011;11624;53.250;7.456;2022-09-24T03:38:54;113.10;;;48.13;;
22916;SDS011;11624;53.250;7.456;2022-09-24T03:41:23;95.45;;;46.13;;
22916;SDS011;11624;53.250;7.456;2022-09-24T03:43:52;122.47;;;47.85;;
22916;SDS011;11624;53.250;7.456;2022-09-24T03:46:20;107.32;;;47.42;;
22916;SDS011;11624;53.250;7.456;2022-09-24T03:49:11;114.93;;;48.35;;
22916;SDS011;11624;53.250;7.456;2022-09-24T03:51:40;120.28;;;49.45;;
22916;SDS011;11624;53.250;7.456;2022-09-24T03:54:10;117.60;;;49.03;;
22916;SDS011;11624;53.250;7.456;2022-09-24T03:56:51;117.88;;;49.25;;
22916;SDS011;11624;53.250;7.456;2022-09-24T03:59:19;118.68;;;49.45;;
22916;SDS011;11624;53.250;7.456;2022-09-24T04:01:47;117.40;;;50.75;;
22916;SDS011;11624;53.250;7.456;2022-09-24T04:04:16;118.85;;;51.78;;
22916;SDS011;11624;53.250;7.456;2022-09-24T04:06:45;133.65;;;52.30;;
22916;SDS011;11624;53.250;7.456;2022-09-24T04:09:14;109.38;;;49.33;;
22916;SDS011;11624;53.250;7.456;2022-09-24T04:11:42;113.63;;;49.88;;
22916;SDS011;11624;53.250;7.456;2022-09-24T04:14:10;130.75;;;51.88;;
22916;SDS011;11624;53.250;7.456;2022-09-24T04:16:38;117.47;;;50.28;;
22916;SDS011;11624;53.250;7.456;2022-09-24T04:19:06;118.28;;;50.30;;
22916;SDS011;11624;53.250;7.456;2022-09-24T04:21:35;117.43;;;50.50;;
22916;SDS011;11624;53.250;7.456;2022-09-24T04:24:04;142.85;;;53.63;;
22916;SDS011;11624;53.250;7.456;2022-09-24T04:26:33;160.00;;;53.88;;
22916;SDS011;11624;53.250;7.456;2022-09-24T04:29:01;125.95;;;51.92;;
22916;SDS011;11624;53.250;7.456;2022-09-24T04:31:30;128.10;;;51.38;;
22916;SDS011;11624;53.250;7.456;2022-09-24T04:33:59;121.63;;;51.17;;
22916;SDS011;11624;53.250;7.456;2022-09-24T04:36:27;113.03;;;50.45;;
22916;SDS011;11624;53.250;7.456;2022-09-24T04:38:55;128.25;;;51.15;;
22916;SDS011;11624;53.250;7.456;2022-09-24T04:41:25;124.97;;;51.33;;
22916;SDS011;11624;53.250;7.456;2022-09-24T04:43:53;113.38;;;50.15;;
22916;SDS011;11624;53.250;7.456;2022-09-24T04:46:21;135.05;;;52.13;;
22916;SDS011;11624;53.250;7.456;2022-09-24T04:48:49;116.80;;;49.53;;
22916;SDS011;11624;53.250;7.456;2022-09-24T04:51:19;145.43;;;51.05;;
22916;SDS011;11624;53.250;7.456;2022-09-24T04:53:47;136.30;;;51.22;;
22916;SDS011;11624;53.250;7.456;2022-09-24T04:56:16;127.28;;;49.63;;
22916;SDS011;11624;53.250;7.456;2022-09-24T04:58:48;114.50;;;50.63;;
22916;SDS011;11624;53.250;7.456;2022-09-24T05:01:17;138.90;;;50.45;;
22916;SDS011;11624;53.250;7.456;2022-09-24T05:03:45;125.70;;;51.03;;
22916;SDS011;11624;53.250;7.456;2022-09-24T05:06:14;116.28;;;49.28;;
22916;SDS011;11624;53.250;7.456;2022-09-24T05:08:44;124.88;;;49.55;;
22916;SDS011;11624;53.250;7.456;2022-09-24T05:11:15;127.45;;;49.90;;
22916;SDS011;11624;53.250;7.456;2022-09-24T05:13:48;109.28;;;48.75;;
22916;SDS011;11624;53.250;7.456;2022-09-24T05:16:19;114.35;;;50.67;;
22916;SDS011;11624;53.250;7.456;2022-09-24T05:18:48;157.88;;;52.58;;
22916;SDS011;11624;53.250;7.456;2022-09-24T05:21:16;123.70;;;50.55;;
22916;SDS011;11624;53.250;7.456;2022-09-24T05:23:44;125.63;;;50.72;;
22916;SDS011;11624;53.250;7.456;2022-09-24T05:26:16;113.47;;;49.13;;
22916;SDS011;11624;53.250;7.456;2022-09-24T05:32:21;138.18;;;50.63;;
22916;SDS011;11624;53.250;7.456;2022-09-24T05:34:51;132.68;;;50.30;;
22916;SDS011;11624;53.250;7.456;2022-09-24T05:37:21;127.03;;;50.95;;
22916;SDS011;11624;53.250;7.456;2022-09-24T05:39:50;141.85;;;52.25;;
22916;SDS011;11624;53.250;7.456;2022-09-24T05:42:19;136.80;;;51.10;;
22916;SDS011;11624;53.250;7.456;2022-09-24T05:44:47;155.15;;;53.70;;
22916;SDS011;11624;53.250;7.456;2022-09-24T05:47:17;134.55;;;52.03;;
22916;SDS011;11624;53.250;7.456;2022-09-24T05:49:47;129.77;;;51.38;;
22916;SDS011;11624;53.250;7.456;2022-09-24T05:52:17;134.07;;;51.83;;
22916;SDS011;11624;53.250;7.456;2022-09-24T05:54:45;153.35;;;52.60;;
22916;SDS011;11624;53.250;7.456;2022-09-24T05:57:13;150.65;;;51.40;;
22916;SDS011;11624;53.250;7.456;2022-09-24T05:59:41;151.55;;;52.83;;
22916;SDS011;11624;53.250;7.456;2022-09-24T06:02:10;141.02;;;53.55;;
22916;SDS011;11624;53.250;7.456;2022-09-24T06:04:38;137.65;;;50.58;;
22916;SDS011;11624;53.250;7.456;2022-09-24T06:07:07;149.48;;;53.65;;
22916;SDS011;11624;53.250;7.456;2022-09-24T06:09:36;129.38;;;50.63;;
22916;SDS011;11624;53.250;7.456;2022-09-24T06:12:06;141.15;;;52.13;;
22916;SDS011;11624;53.250;7.456;2022-09-24T06:14:36;141.65;;;51.72;;
22916;SDS011;11624;53.250;7.456;2022-09-24T06:20:00;131.93;;;51.45;;
22916;SDS011;11624;53.250;7.456;2022-09-24T06:22:29;151.90;;;54.03;;
22916;SDS011;11624;53.250;7.456;2022-09-24T06:24:57;137.05;;;52.38;;
22916;SDS011;11624;53.250;7.456;2022-09-24T06:27:25;129.82;;;51.95;;
22916;SDS011;11624;53.250;7.456;2022-09-24T06:29:53;129.70;;;51.70;;
22916;SDS011;11624;53.250;7.456;2022-09-24T06:32:22;174.77;;;53.42;;
22916;SDS011;11624;53.250;7.456;2022-09-24T06:34:50;130.27;;;50.65;;
22916;SDS011;11624;53.250;7.456;2022-09-24T06:37:24;132.40;;;53.20;;
22916;SDS011;11624;53.250;7.456;2022-09-24T06:39:54;127.80;;;51.17;;
22916;SDS011;11624;53.250;7.456;2022-09-24T06:42:23;154.32;;;53.85;;
22916;SDS011;11624;53.250;7.456;2022-09-24T06:44:54;118.50;;;50.42;;
22916;SDS011;11624;53.250;7.456;2022-09-24T06:47:30;152.43;;;53.33;;
22916;SDS011;11624;53.250;7.456;2022-09-24T06:49:58;129.70;;;51.85;;
22916;SDS011;11624;53.250;7.456;2022-09-24T06:52:28;127.47;;;50.40;;
22916;SDS011;11624;53.250;7.456;2022-09-24T06:54:59;124.07;;;52.47;;
22916;SDS011;11624;53.250;7.456;2022-09-24T06:57:27;115.63;;;49.30;;
22916;SDS011;11624;53.250;7.456;2022-09-24T06:59:55;124.18;;;52.45;;
22916;SDS011;11624;53.250;7.456;2022-09-24T07:02:23;119.30;;;53.33;;
22916;SDS011;11624;53.250;7.456;2022-09-24T07:04:51;142.43;;;53.85;;
22916;SDS011;11624;53.250;7.456;2022-09-24T07:07:19;122.72;;;50.90;;
22916;SDS011;11624;53.250;7.456;2022-09-24T07:10:00;127.38;;;55.72;;
22916;SDS011;11624;53.250;7.456;2022-09-24T07:12:30;116.70;;;49.85;;
22916;SDS011;11624;53.250;7.456;2022-09-24T07:14:59;133.68;;;50.72;;
22916;SDS011;11624;53.250;7.456;2022-09-24T07:17:27;113.35;;;49.65;;
22916;SDS011;11624;53.250;7.456;2022-09-24T07:19:59;123.35;;;49.67;;
22916;SDS011;11624;53.250;7.456;2022-09-24T07:22:28;120.63;;;55.15;;
22916;SDS011;11624;53.250;7.456;2022-09-24T07:24:56;112.45;;;48.40;;
22916;SDS011;11624;53.250;7.456;2022-09-24T07:27:25;108.60;;;47.00;;
22916;SDS011;11624;53.250;7.456;2022-09-24T07:29:53;105.57;;;46.70;;
22916;SDS011;11624;53.250;7.456;2022-09-24T07:32:22;106.43;;;47.95;;
22916;SDS011;11624;53.250;7.456;2022-09-24T07:34:56;109.88;;;48.75;;
22916;SDS011;11624;53.250;7.456;2022-09-24T07:37:24;94.15;;;46.65;;
22916;SDS011;11624;53.250;7.456;2022-09-24T07:39:56;99.00;;;46.13;;
22916;SDS011;11624;53.250;7.456;2022-09-24T07:42:26;86.43;;;43.65;;
22916;SDS011;11624;53.250;7.456;2022-09-24T07:44:55;95.75;;;44.20;;
22916;SDS011;11624;53.250;7.456;2022-09-24T07:47:23;89.78;;;44.35;;
22916;SDS011;11624;53.250;7.456;2022-09-24T07:49:52;88.97;;;44.15;;
22916;SDS011;11624;53.250;7.456;2022-09-24T07:52:20;91.50;;;43.33;;
22916;SDS011;11624;53.250;7.456;2022-09-24T07:55:30;87.70;;;42.78;;
22916;SDS011;11624;53.250;7.456;2022-09-24T07:58:00;99.80;;;43.40;;
22916;SDS011;11624;53.250;7.456;2022-09-24T08:00:28;89.72;;;44.05;;
22916;SDS011;11624;53.250;7.456;2022-09-24T08:03:00;84.53;;;42.92;;
22916;SDS011;11624;53.250;7.456;2022-09-24T08:05:28;89.63;;;43.28;;
22916;SDS011;11624;53.250;7.456;2022-09-24T08:07:58;85.38;;;42.78;;
22916;SDS011;11624;53.250;7.456;2022-09-24T08:10:28;83.78;;;42.47;;
22916;SDS011;11624;53.250;7.456;2022-09-24T08:13:01;79.43;;;40.42;;
22916;SDS011;11624;53.250;7.456;2022-09-24T08:15:29;74.05;;;38.78;;
22916;SDS011;11624;53.250;7.456;2022-09-24T08:18:00;87.13;;;39.53;;
22916;SDS011;11624;53.250;7.456;2022-09-24T08:20:43;75.18;;;36.63;;
22916;SDS011;11624;53.250;7.456;2022-09-24T08:23:12;74.53;;;36.47;;
22916;SDS011;11624;53.250;7.456;2022-09-24T08:25:41;71.50;;;36.15;;
22916;SDS011;11624;53.250;7.456;2022-09-24T08:28:10;73.35;;;35.38;;
22916;SDS011;11624;53.250;7.456;2022-09-24T08:30:43;63.10;;;32.95;;
22916;SDS011;11624;53.250;7.456;2022-09-24T08:33:19;71.85;;;34.95;;
22916;SDS011;11624;53.250;7.456;2022-09-24T08:35:48;65.80;;;31.42;;
22916;SDS011;11624;53.250;7.456;2022-09-24T08:38:19;62.55;;;30.77;;
22916;SDS011;11624;53.250;7.456;2022-09-24T08:40:55;59.00;;;27.90;;
22916;SDS011;11624;53.250;7.456;2022-09-24T08:43:34;55.92;;;26.02;;
22916;SDS011;11624;53.250;7.456;2022-09-24T08:46:12;51.15;;;24.95;;
22916;SDS011;11624;53.250;7.456;2022-09-24T08:49:04;44.42;;;21.00;;
22916;SDS011;11624;53.250;7.456;2022-09-24T08:51:47;41.65;;;21.23;;
22916;SDS011;11624;53.250;7.456;2022-09-24T08:54:24;38.42;;;19.23;;
22916;SDS011;11624;53.250;7.456;2022-09-24T08:56:56;38.17;;;18.77;;
22916;SDS011;11624;53.250;7.456;2022-09-24T08:59:28;32.65;;;16.40;;
22916;SDS011;11624;53.250;7.456;2022-09-24T09:02:13;27.88;;;14.98;;
22916;SDS011;11624;53.250;7.456;2022-09-24T09:04:50;28.83;;;14.98;;
22916;SDS011;11624;53.250;7.456;2022-09-24T09:07:31;26.00;;;13.23;;
22916;SDS011;11624;53.250;7.456;2022-09-24T09:10:11;23.67;;;13.07;;
22916;SDS011;11624;53.250;7.456;2022-09-24T09:12:43;26.75;;;12.65;;
22916;SDS011;11624;53.250;7.456;2022-09-24T09:15:18;25.98;;;13.45;;
22916;SDS011;11624;53.250;7.456;2022-09-24T09:17:50;24.42;;;13.40;;
22916;SDS011;11624;53.250;7.456;2022-09-24T09:20:22;24.42;;;13.27;;
22916;SDS011;11624;53.250;7.456;2022-09-24T09:22:55;22.90;;;12.02;;
22916;SDS011;11624;53.250;7.456;2022-09-24T09:25:28;20.30;;;10.98;;
22916;SDS011;11624;53.250;7.456;2022-09-24T09:28:02;18.38;;;9.23;;
22916;SDS011;11624;53.250;7.456;2022-09-24T09:30:43;19.27;;;9.77;;
22916;SDS011;11624;53.250;7.456;2022-09-24T09:33:24;18.38;;;9.52;;
22916;SDS011;11624;53.250;7.456;2022-09-24T09:36:01;18.30;;;9.00;;
22916;SDS011;11624;53.250;7.456;2022-09-24T09:38:42;18.85;;;9.80;;
22916;SDS011;11624;53.250;7.456;2022-09-24T09:41:26;17.33;;;8.43;;
22916;SDS011;11624;53.250;7.456;2022-09-24T09:44:07;17.98;;;9.38;;
22916;SDS011;11624;53.250;7.456;2022-09-24T09:46:43;17.98;;;8.95;;
22916;SDS011;11624;53.250;7.456;2022-09-24T09:49:18;18.48;;;9.35;;
22916;SDS011;11624;53.250;7.456;2022-09-24T09:51:55;17.00;;;9.15;;
22916;SDS011;11624;53.250;7.456;2022-09-24T09:54:34;15.90;;;7.97;;
22916;SDS011;11624;53.250;7.456;2022-09-24T09:57:05;16.48;;;7.82;;
22916;SDS011;11624;53.250;7.456;2022-09-24T09:59:38;15.13;;;7.55;;
22916;SDS011;11624;53.250;7.456;2022-09-24T10:02:10;12.48;;;5.90;;
22916;SDS011;11624;53.250;7.456;2022-09-24T10:04:45;12.65;;;5.93;;
22916;SDS011;11624;53.250;7.456;2022-09-24T10:07:17;10.48;;;4.50;;
22916;SDS011;11624;53.250;7.456;2022-09-24T10:09:45;10.55;;;4.65;;
22916;SDS011;11624;53.250;7.456;2022-09-24T10:12:24;12.02;;;5.40;;
22916;SDS011;11624;53.250;7.456;2022-09-24T10:14:56;11.48;;;5.35;;
22916;SDS011;11624;53.250;7.456;2022-09-24T10:17:33;14.48;;;5.75;;
22916;SDS011;11624;53.250;7.456;2022-09-24T10:20:14;13.32;;;5.80;;
22916;SDS011;11624;53.250;7.456;2022-09-24T10:22:59;11.38;;;4.85;;
22916;SDS011;11624;53.250;7.456;2022-09-24T10:25:32;12.70;;;4.68;;
22916;SDS011;11624;53.250;7.456;2022-09-24T10:28:07;10.52;;;4.28;;
22916;SDS011;11624;53.250;7.456;2022-09-24T10:31:24;9.82;;;3.80;;
22916;SDS011;11624;53.250;7.456;2022-09-24T10:34:34;8.82;;;3.88;;
22916;SDS011;11624;53.250;7.456;2022-09-24T10:37:03;10.80;;;4.15;;
22916;SDS011;11624;53.250;7.456;2022-09-24T10:39:40;8.70;;;3.42;;
22916;SDS011;11624;53.250;7.456;2022-09-24T10:42:13;8.98;;;3.70;;
22916;SDS011;11624;53.250;7.456;2022-09-24T10:44:50;7.15;;;3.10;;
22916;SDS011;11624;53.250;7.456;2022-09-24T10:47:21;6.60;;;3.00;;
22916;SDS011;11624;53.250;7.456;2022-09-24T10:53:02;7.38;;;2.85;;
22916;SDS011;11624;53.250;7.456;2022-09-24T10:55:43;5.32;;;2.70;;
22916;SDS011;11624;53.250;7.456;2022-09-24T10:58:27;8.65;;;3.22;;
22916;SDS011;11624;53.250;7.456;2022-09-24T11:01:08;6.55;;;2.90;;
22916;SDS011;11624;53.250;7.456;2022-09-24T11:06:49;6.72;;;2.65;;
22916;SDS011;11624;53.250;7.456;2022-09-24T11:09:54;4.22;;;2.28;;
22916;SDS011;11624;53.250;7.456;2022-09-24T11:12:29;5.05;;;2.50;;
22916;SDS011;11624;53.250;7.456;2022-09-24T11:15:05;4.18;;;2.30;;
22916;SDS011;11624;53.250;7.456;2022-09-24T11:17:46;3.60;;;2.20;;
22916;SDS011;11624;53.250;7.456;2022-09-24T11:20:28;4.90;;;2.10;;
22916;SDS011;11624;53.250;7.456;2022-09-24T11:23:04;8.60;;;3.30;;
22916;SDS011;11624;53.250;7.456;2022-09-24T11:25:45;9.23;;;3.53;;
22916;SDS011;11624;53.250;7.456;2022-09-24T11:28:28;8.82;;;3.60;;
22916;SDS011;11624;53.250;7.456;2022-09-24T11:31:28;9.80;;;3.90;;
22916;SDS011;11624;53.250;7.456;2022-09-24T11:34:18;8.88;;;3.88;;
22916;SDS011;11624;53.250;7.456;2022-09-24T11:37:06;10.80;;;4.50;;
22916;SDS011;11624;53.250;7.456;2022-09-24T11:39:49;9.30;;;4.40;;
22916;SDS011;11624;53.250;7.456;2022-09-24T11:42:28;10.75;;;4.95;;
22916;SDS011;11624;53.250;7.456;2022-09-24T11:45:11;10.55;;;5.03;;
22916;SDS011;11624;53.250;7.456;2022-09-24T11:48:02;10.00;;;4.38;;
22916;SDS011;11624;53.250;7.456;2022-09-24T11:50:46;11.75;;;5.03;;
22916;SDS011;11624;53.250;7.456;2022-09-24T11:53:24;10.40;;;4.55;;
22916;SDS011;11624;53.250;7.456;2022-09-24T11:55:59;12.80;;;5.13;;
22916;SDS011;11624;53.250;7.456;2022-09-24T11:58:40;11.23;;;5.05;;
22916;SDS011;11624;53.250;7.456;2022-09-24T12:01:13;11.60;;;5.53;;
22916;SDS011;11624;53.250;7.456;2022-09-24T12:03:45;11.85;;;5.32;;
22916;SDS011;11624;53.250;7.456;2022-09-24T12:06:20;10.45;;;5.10;;
22916;SDS011;11624;53.250;7.456;2022-09-24T12:08:52;11.35;;;5.30;;
22916;SDS011;11624;53.250;7.456;2022-09-24T12:11:28;12.05;;;4.93;;
22916;SDS011;11624;53.250;7.456;2022-09-24T12:14:05;10.73;;;5.25;;
22916;SDS011;11624;53.250;7.456;2022-09-24T12:16:40;10.63;;;4.80;;
22916;SDS011;11624;53.250;7.456;2022-09-24T12:19:21;12.48;;;5.20;;
22916;SDS011;11624;53.250;7.456;2022-09-24T12:21:53;10.73;;;4.53;;
22916;SDS011;11624;53.250;7.456;2022-09-24T12:24:25;9.43;;;4.50;;
22916;SDS011;11624;53.250;7.456;2022-09-24T12:26:57;11.65;;;5.80;;
22916;SDS011;11624;53.250;7.456;2022-09-24T12:29:34;11.57;;;5.47;;
22916;SDS011;11624;53.250;7.456;2022-09-24T12:32:25;11.23;;;5.25;;
22916;SDS011;11624;53.250;7.456;2022-09-24T12:35:18;12.30;;;5.50;;
22916;SDS011;11624;53.250;7.456;2022-09-24T12:38:03;11.13;;;5.43;;
22916;SDS011;11624;53.250;7.456;2022-09-24T12:40:41;11.45;;;5.13;;
22916;SDS011;11624;53.250;7.456;2022-09-24T12:43:32;10.02;;;4.68;;
22916;SDS011;11624;53.250;7.456;2022-09-24T12:46:14;11.35;;;5.43;;
22916;SDS011;11624;53.250;7.456;2022-09-24T12:48:44;10.98;;;4.97;;
22916;SDS011;11624;53.250;7.456;2022-09-24T12:51:15;11.60;;;5.50;;
22916;SDS011;11624;53.250;7.456;2022-09-24T12:53:55;12.43;;;5.35;;
22916;SDS011;11624;53.250;7.456;2022-09-24T12:56:26;9.93;;;4.78;;
22916;SDS011;11624;53.250;7.456;2022-09-24T12:58:56;10.60;;;4.72;;
22916;SDS011;11624;53.250;7.456;2022-09-24T13:01:27;9.98;;;4.30;;
22916;SDS011;11624;53.250;7.456;2022-09-24T13:04:04;9.38;;;4.15;;
22916;SDS011;11624;53.250;7.456;2022-09-24T13:06:50;8.13;;;3.85;;
22916;SDS011;11624;53.250;7.456;2022-09-24T13:12:19;8.02;;;3.83;;
22916;SDS011;11624;53.250;7.456;2022-09-24T13:14:51;7.97;;;3.40;;
22916;SDS011;11624;53.250;7.456;2022-09-24T13:17:28;9.32;;;4.55;;
22916;SDS011;11624;53.250;7.456;2022-09-24T13:19:58;10.15;;;4.30;;
22916;SDS011;11624;53.250;7.456;2022-09-24T13:22:28;10.35;;;4.32;;
22916;SDS011;11624;53.250;7.456;2022-09-24T13:27:56;12.13;;;5.47;;
22916;SDS011;11624;53.250;7.456;2022-09-24T13:30:33;15.52;;;6.55;;
22916;SDS011;11624;53.250;7.456;2022-09-24T13:33:12;14.65;;;7.38;;
22916;SDS011;11624;53.250;7.456;2022-09-24T13:35:54;16.00;;;7.13;;
22916;SDS011;11624;53.250;7.456;2022-09-24T13:38:29;15.15;;;7.82;;
22916;SDS011;11624;53.250;7.456;2022-09-24T13:41:05;18.42;;;8.85;;
22916;SDS011;11624;53.250;7.456;2022-09-24T13:43:46;16.77;;;8.32;;
22916;SDS011;11624;53.250;7.456;2022-09-24T13:46:17;18.13;;;9.52;;
22916;SDS011;11624;53.250;7.456;2022-09-24T13:48:49;18.80;;;11.07;;
22916;SDS011;11624;53.250;7.456;2022-09-24T13:51:22;22.08;;;12.02;;
22916;SDS011;11624;53.250;7.456;2022-09-24T13:53:56;23.35;;;13.13;;
22916;SDS011;11624;53.250;7.456;2022-09-24T13:56:35;22.90;;;11.98;;
22916;SDS011;11624;53.250;7.456;2022-09-24T13:59:03;21.77;;;12.73;;
22916;SDS011;11624;53.250;7.456;2022-09-24T14:01:38;24.58;;;12.98;;
22916;SDS011;11624;53.250;7.456;2022-09-24T14:04:14;25.05;;;12.88;;
22916;SDS011;11624;53.250;7.456;2022-09-24T14:06:45;24.30;;;13.57;;
22916;SDS011;11624;53.250;7.456;2022-09-24T14:09:24;27.70;;;15.38;;
22916;SDS011;11624;53.250;7.456;2022-09-24T14:11:54;27.67;;;14.48;;
22916;SDS011;11624;53.250;7.456;2022-09-24T14:14:24;28.13;;;15.75;;
22916;SDS011;11624;53.250;7.456;2022-09-24T14:17:04;31.30;;;15.60;;
22916;SDS011;11624;53.250;7.456;2022-09-24T14:19:34;29.83;;;15.90;;
22916;SDS011;11624;53.250;7.456;2022-09-24T14:22:03;29.60;;;15.00;;
22916;SDS011;11624;53.250;7.456;2022-09-24T14:24:34;26.98;;;15.43;;
22916;SDS011;11624;53.250;7.456;2022-09-24T14:27:10;27.55;;;15.00;;
22916;SDS011;11624;53.250;7.456;2022-09-24T14:29:42;27.00;;;14.48;;
22916;SDS011;11624;53.250;7.456;2022-09-24T14:32:18;26.65;;;13.50;;
22916;SDS011;11624;53.250;7.456;2022-09-24T14:34:51;24.65;;;13.82;;
22916;SDS011;11624;53.250;7.456;2022-09-24T14:37:21;28.90;;;14.25;;
22916;SDS011;11624;53.250;7.456;2022-09-24T14:39:57;29.27;;;14.73;;
22916;SDS011;11624;53.250;7.456;2022-09-24T14:42:29;25.90;;;15.18;;
22916;SDS011;11624;53.250;7.456;2022-09-24T14:45:00;30.05;;;15.98;;
22916;SDS011;11624;53.250;7.456;2022-09-24T14:47:33;32.30;;;14.80;;
22916;SDS011;11624;53.250;7.456;2022-09-24T14:53:01;30.40;;;14.85;;
22916;SDS011;11624;53.250;7.456;2022-09-24T14:55:39;31.20;;;13.70;;
22916;SDS011;11624;53.250;7.456;2022-09-24T14:58:22;28.42;;;13.00;;
22916;SDS011;11624;53.250;7.456;2022-09-24T15:01:03;25.88;;;12.40;;
22916;SDS011;11624;53.250;7.456;2022-09-24T15:03:36;28.20;;;13.02;;
22916;SDS011;11624;53.250;7.456;2022-09-24T15:06:19;26.45;;;10.55;;
22916;SDS011;11624;53.250;7.456;2022-09-24T15:08:54;18.55;;;7.80;;
22916;SDS011;11624;53.250;7.456;2022-09-24T15:11:26;19.40;;;7.85;;
22916;SDS011;11624;53.250;7.456;2022-09-24T15:14:00;17.35;;;6.13;;
22916;SDS011;11624;53.250;7.456;2022-09-24T15:16:38;19.80;;;5.72;;
22916;SDS011;11624;53.250;7.456;2022-09-24T15:19:11;17.05;;;4.50;;
22916;SDS011;11624;53.250;7.456;2022-09-24T15:21:43;19.27;;;4.22;;
22916;SDS011;11624;53.250;7.456;2022-09-24T15:24:12;12.90;;;4.10;;
22916;SDS011;11624;53.250;7.456;2022-09-24T15:26:44;10.57;;;3.15;;
22916;SDS011;11624;53.250;7.456;2022-09-24T15:29:16;15.27;;;2.90;;
22916;SDS011;11624;53.250;7.456;2022-09-24T15:31:49;14.18;;;3.13;;
22916;SDS011;11624;53.250;7.456;2022-09-24T15:34:18;19.25;;;3.38;;
22916;SDS011;11624;53.250;7.456;2022-09-24T15:36:48;15.57;;;3.33;;
22916;SDS011;11624;53.250;7.456;2022-09-24T15:39:20;15.77;;;3.42;;
22916;SDS011;11624;53.250;7.456;2022-09-24T15:41:51;13.13;;;3.00;;
22916;SDS011;11624;53.250;7.456;2022-09-24T15:44:23;11.20;;;2.72;;